Time;durP1;ratioP1;P1;durP2;ratioP2;P2;SDS_P1;SDS_P2;PMS_P1;PMS_P2;Temp;Humidity;BMP_temperature;BMP_pressure;BME280_temperature;BME280_humidity;BME280_pressure;Samples;Min_cycle;Max_cycle;Signal;HPM_P1;HPM_P2
2022/03/15 00:00:47;;;;;;;10.40;7.83;;;9.70;99.90;;;;;;4981121;28;20211;-77
2022/03/15 00:03:14;;;;;;;10.00;8.03;;;9.60;99.90;;;;;;4986796;28;20255;-77
2022/03/15 00:05:42;;;;;;;10.27;7.47;;;9.80;99.90;;;;;;4966384;28;20201;-77
2022/03/15 00:08:09;;;;;;;11.60;8.50;;;9.80;99.90;;;;;;4983809;28;20217;-77
2022/03/15 00:10:38;;;;;;;9.50;7.60;;;9.70;99.90;;;;;;4980882;28;20188;-77
2022/03/15 00:13:07;;;;;;;10.07;7.50;;;9.60;99.90;;;;;;4985132;28;20207;-77
2022/03/15 00:15:36;;;;;;;10.27;7.70;;;9.60;99.90;;;;;;4988674;28;20204;-77
2022/03/15 00:18:04;;;;;;;7.70;6.83;;;9.70;99.90;;;;;;4972030;28;20216;-78
2022/03/15 00:20:33;;;;;;;13.53;7.17;;;9.60;99.90;;;;;;4972189;28;20221;-78
2022/03/15 00:23:01;;;;;;;14.07;7.57;;;9.60;99.90;;;;;;4972009;28;20224;-78
2022/03/15 00:25:30;;;;;;;8.17;7.10;;;9.60;99.90;;;;;;4961126;28;20201;-78
2022/03/15 00:27:59;;;;;;;10.07;6.97;;;9.60;99.90;;;;;;4972631;28;20220;-78
2022/03/15 00:30:26;;;;;;;10.53;7.60;;;9.70;99.90;;;;;;4976165;28;20205;-78
2022/03/15 00:32:55;;;;;;;10.40;7.10;;;9.80;99.90;;;;;;5007999;28;20189;-78
2022/03/15 00:35:24;;;;;;;9.27;6.63;;;9.80;99.90;;;;;;4995527;28;20200;-78
2022/03/15 00:37:53;;;;;;;10.20;6.80;;;9.90;99.90;;;;;;4974365;28;20221;-78
2022/03/15 00:40:22;;;;;;;12.77;7.03;;;10.00;99.90;;;;;;4976603;28;20205;-78
2022/03/15 00:42:51;;;;;;;10.77;6.63;;;9.90;99.90;;;;;;4987178;28;20200;-78
2022/03/15 00:45:25;;;;;;;10.37;7.10;;;9.90;99.90;;;;;;4977433;28;20197;-78
2022/03/15 00:47:53;;;;;;;11.63;7.40;;;9.90;99.90;;;;;;4991078;28;20217;-78
2022/03/15 00:50:20;;;;;;;9.40;6.93;;;9.90;99.90;;;;;;4990159;28;20255;-78
2022/03/15 00:52:48;;;;;;;9.53;6.90;;;9.90;99.90;;;;;;4974761;28;20205;-78
2022/03/15 00:55:16;;;;;;;8.10;6.60;;;10.00;99.90;;;;;;4991263;28;20205;-78
2022/03/15 00:57:45;;;;;;;9.57;7.37;;;10.00;99.90;;;;;;4978690;28;20212;-78
2022/03/15 01:00:16;;;;;;;9.53;6.67;;;10.00;99.90;;;;;;4980011;28;20217;-78
2022/03/15 01:02:45;;;;;;;10.33;7.43;;;9.90;99.90;;;;;;4975928;28;20208;-78
2022/03/15 01:05:19;;;;;;;10.27;7.53;;;9.80;99.90;;;;;;4985027;28;20189;-78
2022/03/15 01:07:46;;;;;;;9.37;7.27;;;9.80;99.90;;;;;;4993091;28;20216;-78
2022/03/15 01:10:15;;;;;;;9.27;6.80;;;9.70;99.90;;;;;;4978888;28;20204;-78
2022/03/15 01:12:42;;;;;;;11.00;7.10;;;9.70;99.90;;;;;;4981024;28;20208;-78
2022/03/15 01:15:10;;;;;;;11.23;7.60;;;9.80;99.90;;;;;;4978986;28;20200;-78
2022/03/15 01:17:38;;;;;;;11.23;7.63;;;9.70;99.90;;;;;;5008020;28;20224;-78
2022/03/15 01:20:08;;;;;;;9.97;7.50;;;9.70;99.90;;;;;;4970666;28;20218;-78
2022/03/15 01:22:39;;;;;;;11.50;6.70;;;9.60;99.90;;;;;;4980890;28;20208;-78
2022/03/15 01:25:08;;;;;;;9.73;7.30;;;9.50;99.90;;;;;;4994739;28;20200;-78
2022/03/15 01:27:38;;;;;;;14.43;7.23;;;9.40;99.90;;;;;;5000530;28;20216;-78
2022/03/15 01:30:07;;;;;;;8.30;6.93;;;9.60;99.90;;;;;;4976128;28;20196;-78
2022/03/15 01:32:35;;;;;;;9.67;7.20;;;9.70;99.90;;;;;;5000769;28;20193;-78
2022/03/15 01:35:04;;;;;;;9.93;7.23;;;9.70;99.90;;;;;;4973369;28;20204;-78
2022/03/15 01:37:33;;;;;;;12.47;7.70;;;9.70;99.90;;;;;;4984378;28;20701;-78
2022/03/15 01:40:10;;;;;;;9.43;7.03;;;9.70;99.90;;;;;;4988710;28;20208;-78
2022/03/15 01:42:37;;;;;;;8.70;6.90;;;9.70;99.90;;;;;;4980634;28;20201;-78
2022/03/15 01:45:08;;;;;;;9.80;6.00;;;9.80;99.90;;;;;;4982869;28;20235;-78
2022/03/15 01:47:38;;;;;;;12.23;7.30;;;9.60;99.90;;;;;;4960572;28;20224;-78
2022/03/15 01:50:07;;;;;;;11.27;7.23;;;9.70;99.90;;;;;;4980476;28;20204;-78
2022/03/15 01:52:36;;;;;;;10.07;7.00;;;9.60;99.90;;;;;;4979765;28;20197;-78
2022/03/15 01:55:05;;;;;;;11.43;7.63;;;9.50;99.90;;;;;;4962371;28;20196;-78
2022/03/15 01:57:33;;;;;;;8.27;7.07;;;9.50;99.90;;;;;;4957952;28;20737;-78
2022/03/15 02:00:01;;;;;;;8.10;6.57;;;9.50;99.90;;;;;;4973544;28;20216;-78
2022/03/15 02:02:28;;;;;;;11.73;7.03;;;9.50;99.90;;;;;;4970169;28;20197;-78
2022/03/15 02:04:56;;;;;;;11.23;7.40;;;9.70;99.90;;;;;;4973754;28;20196;-78
2022/03/15 02:07:23;;;;;;;8.33;6.80;;;9.60;99.90;;;;;;4960281;28;20200;-78
2022/03/15 02:09:53;;;;;;;11.80;7.57;;;9.70;99.90;;;;;;4990656;28;20201;-78
2022/03/15 02:12:21;;;;;;;10.67;7.10;;;9.70;99.90;;;;;;4972848;28;20201;-78
2022/03/15 02:14:48;;;;;;;13.30;7.43;;;9.70;99.90;;;;;;4987001;28;20542;-78
2022/03/15 02:17:16;;;;;;;10.03;7.53;;;9.70;99.90;;;;;;4985760;28;20208;-78
2022/03/15 02:19:44;;;;;;;10.27;6.90;;;9.70;99.90;;;;;;4972588;28;20201;-78
2022/03/15 02:22:14;;;;;;;10.03;7.33;;;9.70;99.90;;;;;;4973548;28;20553;-78
2022/03/15 02:24:42;;;;;;;14.13;7.03;;;9.60;99.90;;;;;;4984428;28;20205;-78
2022/03/15 02:27:12;;;;;;;9.70;7.40;;;9.50;99.90;;;;;;4975093;28;20566;-78
2022/03/15 02:29:40;;;;;;;11.47;7.37;;;9.60;99.90;;;;;;4983246;28;20224;-78
2022/03/15 02:32:09;;;;;;;10.00;6.93;;;9.50;99.90;;;;;;4983726;28;20194;-78
2022/03/15 02:34:36;;;;;;;10.00;7.37;;;9.50;99.90;;;;;;4975924;28;20201;-78
2022/03/15 02:37:04;;;;;;;12.77;7.93;;;9.60;99.90;;;;;;4982435;28;20193;-78
2022/03/15 02:39:33;;;;;;;9.50;7.57;;;9.60;99.90;;;;;;4975438;28;20224;-78
2022/03/15 02:42:01;;;;;;;9.60;7.37;;;9.50;99.90;;;;;;4988195;28;20232;-78
2022/03/15 02:44:28;;;;;;;12.97;7.60;;;9.40;99.90;;;;;;4973658;28;20551;-78
2022/03/15 02:46:56;;;;;;;10.43;7.20;;;9.40;99.90;;;;;;4989619;28;20215;-78
2022/03/15 02:49:24;;;;;;;9.87;6.90;;;9.40;99.90;;;;;;4971360;28;20584;-78
2022/03/15 02:51:51;;;;;;;9.63;6.57;;;9.40;99.90;;;;;;4971623;28;20197;-78
2022/03/15 02:54:19;;;;;;;9.97;6.83;;;9.40;99.90;;;;;;4997826;28;20255;-78
2022/03/15 02:56:49;;;;;;;10.33;6.77;;;9.40;99.90;;;;;;4971832;28;20564;-78
2022/03/15 02:59:17;;;;;;;9.20;7.00;;;9.50;99.90;;;;;;4992777;28;20686;-78
2022/03/15 03:01:46;;;;;;;9.80;6.80;;;9.50;99.90;;;;;;4991656;28;20223;-78
2022/03/15 03:04:14;;;;;;;11.53;7.20;;;9.30;99.90;;;;;;4998773;28;20574;-78
2022/03/15 03:06:42;;;;;;;10.83;7.23;;;9.40;99.90;;;;;;4970049;28;20205;-78
2022/03/15 03:09:11;;;;;;;10.93;7.70;;;9.40;99.90;;;;;;4970777;28;20240;-78
2022/03/15 03:11:39;;;;;;;10.00;6.83;;;9.30;99.90;;;;;;4972215;28;20281;-78
2022/03/15 03:14:08;;;;;;;8.73;6.27;;;9.40;99.90;;;;;;4981179;28;20234;-78
2022/03/15 03:16:39;;;;;;;10.83;7.17;;;9.40;99.90;;;;;;4971160;28;20562;-78
2022/03/15 03:19:08;;;;;;;9.53;7.40;;;9.50;99.90;;;;;;4975359;28;20220;-78
2022/03/15 03:21:37;;;;;;;9.60;6.53;;;9.50;99.90;;;;;;4980456;28;20616;-78
2022/03/15 03:24:06;;;;;;;9.10;6.83;;;9.50;99.90;;;;;;4993973;28;20208;-78
2022/03/15 03:26:37;;;;;;;10.40;6.93;;;9.40;99.90;;;;;;4981321;28;20196;-78
2022/03/15 03:29:09;;;;;;;8.63;6.57;;;9.40;99.90;;;;;;4978017;28;20223;-78
2022/03/15 03:31:37;;;;;;;9.73;6.43;;;9.50;99.90;;;;;;4955507;28;20216;-78
2022/03/15 03:34:05;;;;;;;8.10;6.43;;;9.50;99.90;;;;;;4960075;28;20293;-78
2022/03/15 03:36:34;;;;;;;7.83;6.20;;;9.50;99.90;;;;;;4975159;28;20659;-78
2022/03/15 03:39:01;;;;;;;10.20;6.70;;;9.50;99.90;;;;;;4959863;28;20593;-78
2022/03/15 03:41:29;;;;;;;9.10;6.03;;;9.50;99.90;;;;;;4968621;28;20221;-78
2022/03/15 03:44:01;;;;;;;8.97;6.90;;;9.40;99.90;;;;;;4975402;28;20193;-78
2022/03/15 03:46:31;;;;;;;7.87;6.90;;;9.40;99.90;;;;;;4963165;28;20200;-78
2022/03/15 03:48:58;;;;;;;12.73;6.83;;;9.30;99.90;;;;;;4973120;28;20240;-78
2022/03/15 03:51:29;;;;;;;9.43;7.03;;;9.40;99.90;;;;;;4994712;28;20204;-78
2022/03/15 03:53:56;;;;;;;10.87;7.37;;;9.30;99.90;;;;;;4958282;28;20212;-78
2022/03/15 03:56:24;;;;;;;9.97;6.97;;;9.30;99.90;;;;;;4955751;28;20210;-78
2022/03/15 03:58:51;;;;;;;12.37;7.50;;;9.40;99.90;;;;;;4959129;28;20224;-78
2022/03/15 04:01:19;;;;;;;8.00;6.50;;;9.40;99.90;;;;;;4959053;28;20209;-78
2022/03/15 04:03:47;;;;;;;11.10;6.90;;;9.40;99.90;;;;;;4958671;28;20208;-78
2022/03/15 04:06:15;;;;;;;7.97;6.53;;;9.40;99.90;;;;;;4972919;28;20208;-78
2022/03/15 04:08:46;;;;;;;11.17;7.40;;;9.50;99.90;;;;;;4975084;28;20224;-78
2022/03/15 04:11:17;;;;;;;10.40;7.90;;;9.60;99.90;;;;;;4958830;28;20674;-78
2022/03/15 04:13:45;;;;;;;12.20;7.90;;;9.40;99.90;;;;;;4981654;28;20200;-78
2022/03/15 04:16:13;;;;;;;10.33;7.07;;;9.30;99.90;;;;;;4976926;28;20639;-79
2022/03/15 04:18:43;;;;;;;11.20;7.73;;;9.30;99.90;;;;;;4961102;28;20228;-78
2022/03/15 04:21:12;;;;;;;9.17;7.70;;;9.40;99.90;;;;;;4976231;28;20201;-78
2022/03/15 04:23:39;;;;;;;8.67;6.77;;;9.20;99.90;;;;;;4967974;28;20192;-79
2022/03/15 04:26:15;;;;;;;9.33;6.40;;;9.30;99.90;;;;;;4974387;28;20603;-78
2022/03/15 04:28:43;;;;;;;11.23;7.70;;;9.30;99.90;;;;;;4979414;28;20230;-78
2022/03/15 04:31:10;;;;;;;9.23;7.67;;;9.30;99.90;;;;;;4971994;28;20198;-78
2022/03/15 04:33:38;;;;;;;11.23;7.40;;;9.20;99.90;;;;;;4985981;28;20201;-78
2022/03/15 04:36:06;;;;;;;10.83;6.77;;;9.20;99.90;;;;;;4981144;28;20194;-78
2022/03/15 04:38:35;;;;;;;11.10;7.37;;;9.20;99.90;;;;;;4988091;28;20216;-78
2022/03/15 04:41:05;;;;;;;8.67;6.80;;;9.20;99.90;;;;;;4975948;28;20209;-78
2022/03/15 04:43:32;;;;;;;12.77;6.80;;;9.20;99.90;;;;;;4976399;28;20217;-78
2022/03/15 04:46:00;;;;;;;9.13;6.90;;;9.30;99.90;;;;;;4974188;28;20667;-78
2022/03/15 04:48:27;;;;;;;9.53;7.00;;;9.20;99.90;;;;;;4977793;28;20224;-78
2022/03/15 04:50:55;;;;;;;10.33;6.20;;;9.10;99.90;;;;;;4978565;28;20207;-78
2022/03/15 04:53:22;;;;;;;9.43;6.57;;;9.20;99.90;;;;;;4974275;28;20679;-78
2022/03/15 04:55:51;;;;;;;9.47;6.60;;;9.20;99.90;;;;;;4974290;28;20205;-78
2022/03/15 04:58:18;;;;;;;10.50;6.60;;;9.30;99.90;;;;;;4977180;28;20551;-78
2022/03/15 05:00:46;;;;;;;8.30;5.60;;;9.20;99.90;;;;;;4981334;28;20204;-78
2022/03/15 05:03:16;;;;;;;9.83;5.60;;;9.20;99.90;;;;;;4987290;28;20220;-78
2022/03/15 05:05:44;;;;;;;9.27;6.20;;;9.20;99.90;;;;;;4998798;28;20647;-78
2022/03/15 05:08:12;;;;;;;10.03;6.00;;;9.00;99.90;;;;;;4988862;28;20217;-78
2022/03/15 05:13:28;;;;;;;8.07;5.47;;;8.90;99.90;;;;;;4976436;28;20193;-78
2022/03/15 05:15:55;;;;;;;8.90;5.53;;;8.90;99.90;;;;;;4988288;28;20208;-78
2022/03/15 05:18:23;;;;;;;9.27;5.30;;;9.00;99.90;;;;;;4973568;28;20235;-78
2022/03/15 05:20:52;;;;;;;7.77;5.40;;;9.10;99.90;;;;;;4989371;28;20204;-78
2022/03/15 05:23:20;;;;;;;6.23;5.13;;;9.10;99.90;;;;;;5015263;28;20212;-78
2022/03/15 05:25:48;;;;;;;8.43;4.93;;;9.20;99.90;;;;;;4992005;28;20208;-78
2022/03/15 05:28:15;;;;;;;6.70;5.20;;;9.10;99.90;;;;;;4982091;28;20236;-78
2022/03/15 05:30:44;;;;;;;7.57;5.37;;;9.10;99.90;;;;;;4967062;28;20207;-78
2022/03/15 05:33:11;;;;;;;8.73;5.47;;;9.10;99.90;;;;;;4980418;28;20188;-78
2022/03/15 05:35:42;;;;;;;9.90;5.77;;;9.10;99.90;;;;;;4972796;28;20564;-78
2022/03/15 05:38:12;;;;;;;8.50;5.80;;;9.10;99.90;;;;;;4957137;28;20217;-78
2022/03/15 05:40:39;;;;;;;8.67;5.70;;;9.10;99.90;;;;;;4999790;28;20201;-78
2022/03/15 05:43:07;;;;;;;9.67;5.27;;;9.20;99.90;;;;;;4989793;28;20231;-78
2022/03/15 05:45:35;;;;;;;6.67;4.87;;;9.20;99.90;;;;;;4956471;28;20540;-78
2022/03/15 05:48:04;;;;;;;6.67;4.57;;;9.30;99.90;;;;;;4963683;28;20221;-78
2022/03/15 05:50:31;;;;;;;9.67;5.47;;;9.30;99.90;;;;;;4961163;28;20203;-78
2022/03/15 05:53:03;;;;;;;7.27;5.20;;;9.20;99.90;;;;;;4962169;28;20212;-78
2022/03/15 05:55:31;;;;;;;7.40;5.40;;;9.10;99.90;;;;;;4963959;28;20206;-78
2022/03/15 05:57:59;;;;;;;6.93;4.47;;;9.10;99.90;;;;;;4962395;28;20225;-78
2022/03/15 06:00:27;;;;;;;6.03;4.17;;;9.00;99.90;;;;;;4971803;28;20553;-78
2022/03/15 06:02:54;;;;;;;8.90;4.80;;;9.00;99.90;;;;;;4970052;28;20217;-76
2022/03/15 06:05:23;;;;;;;8.50;4.97;;;9.20;99.90;;;;;;4992750;28;20207;-76
2022/03/15 06:07:52;;;;;;;9.07;5.03;;;9.10;99.90;;;;;;4976382;28;20220;-76
2022/03/15 06:10:22;;;;;;;7.23;4.70;;;9.10;99.90;;;;;;4993751;28;20199;-76
2022/03/15 06:12:51;;;;;;;9.03;5.17;;;9.10;99.90;;;;;;4967347;28;20194;-77
2022/03/15 06:15:19;;;;;;;7.07;5.03;;;9.00;99.90;;;;;;4971978;28;20201;-77
2022/03/15 06:17:48;;;;;;;7.57;4.97;;;9.00;99.90;;;;;;4965662;28;20229;-77
2022/03/15 06:20:18;;;;;;;7.27;5.00;;;9.10;99.90;;;;;;4973314;28;20201;-77
2022/03/15 06:22:48;;;;;;;7.17;4.73;;;9.10;99.90;;;;;;4986460;28;20208;-77
2022/03/15 06:25:19;;;;;;;6.30;4.57;;;9.10;99.90;;;;;;4982320;28;20191;-77
2022/03/15 06:27:47;;;;;;;7.97;4.97;;;9.00;99.90;;;;;;4976365;28;20224;-77
2022/03/15 06:30:16;;;;;;;8.13;4.47;;;8.90;99.90;;;;;;4970022;28;20204;-77
2022/03/15 06:32:44;;;;;;;7.13;4.73;;;9.10;99.90;;;;;;4984732;28;20199;-77
2022/03/15 06:35:13;;;;;;;4.90;4.13;;;9.10;99.90;;;;;;4968783;28;20204;-78
2022/03/15 06:37:43;;;;;;;6.97;4.53;;;9.10;99.90;;;;;;4972543;28;20216;-75
2022/03/15 06:40:13;;;;;;;8.17;4.27;;;9.00;99.90;;;;;;4962910;28;20204;-75
2022/03/15 06:42:41;;;;;;;7.17;4.70;;;9.10;99.90;;;;;;4973704;28;20227;-75
2022/03/15 06:45:10;;;;;;;6.67;4.50;;;9.10;99.90;;;;;;4971925;28;20201;-78
2022/03/15 06:47:38;;;;;;;5.70;3.67;;;9.20;99.90;;;;;;4970375;28;20228;-76
2022/03/15 06:50:08;;;;;;;6.53;4.17;;;9.10;99.90;;;;;;4970885;28;20213;-76
2022/03/15 06:52:37;;;;;;;6.80;3.83;;;9.20;99.90;;;;;;4978595;28;20193;-76
2022/03/15 06:55:05;;;;;;;9.30;4.27;;;9.10;99.90;;;;;;4957610;28;20197;-76
2022/03/15 06:57:35;;;;;;;7.60;4.60;;;9.00;99.90;;;;;;4969949;28;20225;-76
2022/03/15 07:00:04;;;;;;;7.13;4.30;;;9.00;99.90;;;;;;4954686;28;20200;-76
2022/03/15 07:02:32;;;;;;;10.73;4.40;;;9.20;99.90;;;;;;4975841;28;20197;-76
2022/03/15 07:05:01;;;;;;;6.97;4.07;;;9.10;99.90;;;;;;4986353;28;20223;-76
2022/03/15 07:07:28;;;;;;;9.90;4.83;;;9.20;99.90;;;;;;4972027;28;20193;-76
2022/03/15 07:09:56;;;;;;;7.43;4.20;;;9.30;99.90;;;;;;4957705;28;20201;-76
2022/03/15 07:12:25;;;;;;;8.07;4.97;;;9.20;99.90;;;;;;4959873;28;20196;-76
2022/03/15 07:14:53;;;;;;;6.20;4.20;;;9.20;99.90;;;;;;4969082;28;20201;-75
2022/03/15 07:17:21;;;;;;;8.33;4.60;;;9.20;99.90;;;;;;4968676;28;20220;-75
2022/03/15 07:19:48;;;;;;;6.97;4.67;;;9.30;99.90;;;;;;4956520;28;20201;-75
2022/03/15 07:22:17;;;;;;;9.17;4.93;;;9.30;99.90;;;;;;4974025;28;20201;-76
2022/03/15 07:24:44;;;;;;;8.40;4.73;;;9.30;99.90;;;;;;4993510;28;20209;-77
2022/03/15 07:27:11;;;;;;;7.00;5.80;;;9.30;99.90;;;;;;4980399;28;20196;-75
2022/03/15 07:29:39;;;;;;;9.23;5.77;;;9.20;99.90;;;;;;4971494;28;20213;-75
2022/03/15 07:32:08;;;;;;;11.50;5.20;;;9.20;99.90;;;;;;4966421;28;20193;-75
2022/03/15 07:34:36;;;;;;;8.70;4.80;;;9.20;99.90;;;;;;4969961;28;20706;-75
2022/03/15 07:37:04;;;;;;;10.37;5.20;;;9.20;99.90;;;;;;4997968;28;20207;-75
2022/03/15 07:39:32;;;;;;;7.33;5.10;;;9.30;99.90;;;;;;5009921;28;20220;-76
2022/03/15 07:42:00;;;;;;;8.40;4.57;;;9.30;99.90;;;;;;4980302;28;20216;-75
2022/03/15 07:44:33;;;;;;;7.70;5.07;;;9.20;99.90;;;;;;4976087;28;20216;-75
2022/03/15 07:47:00;;;;;;;6.70;4.87;;;9.30;99.90;;;;;;4973883;28;20224;-75
2022/03/15 07:49:29;;;;;;;10.23;5.23;;;9.30;99.90;;;;;;4979795;28;20220;-75
2022/03/15 07:51:57;;;;;;;9.53;4.83;;;9.30;99.90;;;;;;4980158;28;20176;-75
2022/03/15 07:54:25;;;;;;;8.43;5.70;;;9.20;99.90;;;;;;4969090;28;20193;-76
2022/03/15 07:56:53;;;;;;;8.77;5.80;;;9.30;99.90;;;;;;4973019;28;20208;-75
2022/03/15 07:59:20;;;;;;;9.63;5.43;;;9.30;99.90;;;;;;4985673;28;20235;-75
2022/03/15 08:01:50;;;;;;;9.20;5.57;;;9.40;99.90;;;;;;4974989;28;20220;-77
2022/03/15 08:04:19;;;;;;;10.07;5.43;;;9.40;99.90;;;;;;4973736;28;20272;-75
2022/03/15 08:06:48;;;;;;;8.87;5.50;;;9.30;99.90;;;;;;4976040;28;20200;-75
2022/03/15 08:09:16;;;;;;;9.57;6.00;;;9.30;99.90;;;;;;4977338;28;20248;-75
2022/03/15 08:11:45;;;;;;;9.83;5.70;;;9.40;99.90;;;;;;4972961;28;20552;-75
2022/03/15 08:14:13;;;;;;;10.03;5.67;;;9.40;99.90;;;;;;4975293;28;20220;-77
2022/03/15 08:16:40;;;;;;;8.17;4.70;;;9.60;99.90;;;;;;4974156;28;20729;-75
2022/03/15 08:19:11;;;;;;;9.17;4.80;;;9.60;99.90;;;;;;4974952;28;20211;-75
2022/03/15 08:21:39;;;;;;;8.20;4.90;;;9.70;99.90;;;;;;4974548;28;20208;-75
2022/03/15 08:24:08;;;;;;;8.07;4.77;;;9.70;99.90;;;;;;4980438;28;20235;-75
2022/03/15 08:26:35;;;;;;;8.57;4.20;;;9.80;99.90;;;;;;4973143;28;20205;-75
2022/03/15 08:29:02;;;;;;;10.60;5.13;;;9.90;99.90;;;;;;4969791;28;20236;-75
2022/03/15 08:31:31;;;;;;;5.20;4.43;;;10.00;99.90;;;;;;4970663;28;20208;-75
2022/03/15 08:34:01;;;;;;;6.63;4.50;;;10.10;99.90;;;;;;4990843;28;20200;-75
2022/03/15 08:36:29;;;;;;;6.57;4.73;;;10.20;99.90;;;;;;4979974;28;20201;-74
2022/03/15 08:38:56;;;;;;;7.67;4.40;;;10.30;99.90;;;;;;4967540;28;20228;-75
2022/03/15 08:41:25;;;;;;;7.10;4.43;;;10.30;99.90;;;;;;4987204;28;20202;-75
2022/03/15 08:43:53;;;;;;;9.00;4.80;;;10.30;99.90;;;;;;4955076;28;20221;-77
2022/03/15 08:46:20;;;;;;;9.63;4.80;;;10.50;99.90;;;;;;4996120;28;20264;-77
2022/03/15 08:48:48;;;;;;;11.47;4.83;;;10.50;99.90;;;;;;4979185;28;20224;-77
2022/03/15 08:51:15;;;;;;;7.00;4.13;;;10.40;99.90;;;;;;4973363;28;20209;-77
2022/03/15 08:53:43;;;;;;;4.17;3.53;;;10.50;99.90;;;;;;4979865;28;20196;-77
2022/03/15 08:56:10;;;;;;;7.13;3.90;;;10.50;99.90;;;;;;4968488;28;20569;-77
2022/03/15 08:58:39;;;;;;;6.93;3.80;;;10.60;99.90;;;;;;4971513;28;20225;-76
2022/03/15 09:01:06;;;;;;;6.27;4.03;;;10.60;99.90;;;;;;4975452;28;20198;-77
2022/03/15 09:03:34;;;;;;;7.13;4.10;;;10.60;99.90;;;;;;4973132;28;20208;-78
2022/03/15 09:06:01;;;;;;;7.57;4.80;;;10.60;99.90;;;;;;4984779;28;20206;-78
2022/03/15 09:08:29;;;;;;;8.27;4.90;;;10.70;99.90;;;;;;4979778;28;20220;-78
2022/03/15 09:10:56;;;;;;;9.37;5.20;;;10.60;99.90;;;;;;4972477;28;20208;-77
2022/03/15 09:13:24;;;;;;;7.87;5.30;;;10.60;99.90;;;;;;4981813;28;20220;-78
2022/03/15 09:15:53;;;;;;;6.00;4.47;;;10.70;99.90;;;;;;4969661;28;20186;-78
2022/03/15 09:18:20;;;;;;;8.85;4.70;;;10.80;99.90;;;;;;4959879;28;20700;-77
2022/03/15 09:20:48;;;;;;;6.07;4.27;;;10.80;99.90;;;;;;4971040;28;20198;-78
2022/03/15 09:23:18;;;;;;;7.97;4.50;;;10.80;99.90;;;;;;4987065;28;20200;-78
2022/03/15 09:25:45;;;;;;;7.57;5.13;;;10.90;99.90;;;;;;4990021;28;20217;-78
2022/03/15 09:28:12;;;;;;;7.50;5.13;;;10.80;99.90;;;;;;4974556;28;20221;-78
2022/03/15 09:30:40;;;;;;;6.97;4.90;;;10.70;99.90;;;;;;4996709;28;20211;-78
2022/03/15 09:33:09;;;;;;;7.40;4.73;;;10.70;99.90;;;;;;4991764;28;20200;-78
2022/03/15 09:35:40;;;;;;;7.80;4.75;;;10.70;99.90;;;;;;4975487;28;20188;-78
2022/03/15 09:38:08;;;;;;;7.07;4.90;;;10.60;99.90;;;;;;4974236;28;20220;-78
2022/03/15 09:40:37;;;;;;;9.27;4.57;;;10.70;99.90;;;;;;4977656;28;20207;-78
2022/03/15 09:43:05;;;;;;;6.28;4.18;;;10.70;99.90;;;;;;5004558;28;20209;-77
2022/03/15 09:45:34;;;;;;;10.33;4.80;;;10.80;99.90;;;;;;4986703;28;20714;-78
2022/03/15 09:48:05;;;;;;;7.87;4.57;;;10.60;99.90;;;;;;4995513;28;20217;-78
2022/03/15 09:50:34;;;;;;;8.20;4.43;;;10.80;99.90;;;;;;4985263;28;20204;-78
2022/03/15 09:53:01;;;;;;;7.90;4.40;;;10.80;99.90;;;;;;4974275;28;20203;-77
2022/03/15 09:55:30;;;;;;;9.30;4.83;;;10.80;99.90;;;;;;4995421;28;20211;-77
2022/03/15 09:57:58;;;;;;;6.10;4.10;;;10.90;99.90;;;;;;4995109;28;20216;-77
2022/03/15 10:00:26;;;;;;;7.13;4.83;;;10.90;99.90;;;;;;4990435;28;20188;-78
2022/03/15 10:02:54;;;;;;;9.20;4.70;;;11.00;99.90;;;;;;4997960;28;20211;-75
2022/03/15 10:05:21;;;;;;;6.65;4.22;;;11.00;99.90;;;;;;4976937;28;20223;-75
2022/03/15 10:07:51;;;;;;;4.85;3.88;;;11.00;99.90;;;;;;4989669;28;20227;-78
2022/03/15 10:10:18;;;;;;;5.53;4.03;;;11.10;99.90;;;;;;4989282;28;20204;-78
2022/03/15 10:12:46;;;;;;;9.23;4.30;;;11.10;99.90;;;;;;4973636;28;20196;-78
2022/03/15 10:15:15;;;;;;;8.23;4.28;;;11.10;99.90;;;;;;4985977;28;20220;-78
2022/03/15 10:17:48;;;;;;;7.78;3.95;;;11.30;99.90;;;;;;4986500;28;20260;-78
2022/03/15 10:20:18;;;;;;;10.65;4.38;;;11.30;99.90;;;;;;4989203;28;20650;-78
2022/03/15 10:22:55;;;;;;;8.30;4.03;;;11.30;99.90;;;;;;4975367;28;20209;-77
2022/03/15 10:25:25;;;;;;;9.20;4.10;;;11.20;99.90;;;;;;4972089;28;20212;-78
2022/03/15 10:27:55;;;;;;;6.18;3.90;;;11.20;99.90;;;;;;4986198;28;20220;-78
2022/03/15 10:30:24;;;;;;;8.15;4.65;;;11.30;99.90;;;;;;4984565;28;20219;-79
2022/03/15 10:32:52;;;;;;;7.50;4.47;;;11.40;99.90;;;;;;4973116;28;20215;-78
2022/03/15 10:35:21;;;;;;;7.85;3.70;;;11.30;99.90;;;;;;4972770;28;20674;-77
2022/03/15 10:37:50;;;;;;;4.88;3.92;;;11.20;99.90;;;;;;4982278;28;20220;-77
2022/03/15 10:40:19;;;;;;;6.88;4.10;;;11.20;99.90;;;;;;4985073;28;20204;-77
2022/03/15 10:42:48;;;;;;;5.95;3.67;;;11.20;99.90;;;;;;4991166;28;20670;-79
2022/03/15 10:45:18;;;;;;;8.20;4.05;;;11.20;99.90;;;;;;4992178;28;20219;-78
2022/03/15 10:47:51;;;;;;;5.57;4.07;;;11.30;99.90;;;;;;4986025;28;20239;-78
2022/03/15 10:50:23;;;;;;;9.48;3.75;;;11.50;99.90;;;;;;4982262;28;20564;-78
2022/03/15 10:52:53;;;;;;;6.38;3.65;;;11.40;99.90;;;;;;4989406;28;20200;-78
2022/03/15 10:55:24;;;;;;;5.88;3.88;;;11.40;99.90;;;;;;4984945;28;20197;-79
2022/03/15 10:57:54;;;;;;;6.15;3.75;;;11.50;99.90;;;;;;4987826;28;20231;-78
2022/03/15 11:00:25;;;;;;;7.82;4.15;;;11.50;99.90;;;;;;4988490;28;20712;-77
2022/03/15 11:02:53;;;;;;;6.45;3.50;;;11.50;99.60;;;;;;4991512;28;22589;-78
2022/03/15 11:05:29;;;;;;;7.70;3.85;;;11.50;99.90;;;;;;4978704;28;20221;-78
2022/03/15 11:07:58;;;;;;;5.07;4.32;;;11.50;99.60;;;;;;4988174;28;20238;-78
2022/03/15 11:10:27;;;;;;;6.70;3.65;;;11.40;99.80;;;;;;4976524;28;20204;-78
2022/03/15 11:12:57;;;;;;;8.25;4.45;;;11.50;99.80;;;;;;4993072;28;20209;-78
2022/03/15 11:15:30;;;;;;;4.25;3.80;;;11.60;99.10;;;;;;4988332;28;20197;-78
2022/03/15 11:18:02;;;;;;;8.52;3.75;;;11.60;99.40;;;;;;4994084;28;20211;-77
2022/03/15 11:20:34;;;;;;;10.50;4.50;;;11.50;99.40;;;;;;4976186;28;20204;-78
2022/03/15 11:23:03;;;;;;;5.57;4.13;;;11.80;99.70;;;;;;4975289;28;20227;-78
2022/03/15 11:25:36;;;;;;;6.57;4.07;;;11.90;99.00;;;;;;4979110;28;20216;-78
2022/03/15 11:28:06;;;;;;;8.05;4.65;;;12.00;98.10;;;;;;4993506;28;20216;-78
2022/03/15 11:30:34;;;;;;;6.03;3.72;;;12.00;97.50;;;;;;4986179;28;20219;-77
2022/03/15 11:33:04;;;;;;;5.80;4.50;;;12.10;97.80;;;;;;4992686;28;20196;-82
2022/03/15 11:35:33;;;;;;;6.57;4.13;;;12.10;97.90;;;;;;4973491;28;20204;-77
2022/03/15 11:38:02;;;;;;;8.75;4.32;;;12.20;97.20;;;;;;4988814;28;20235;-77
2022/03/15 11:40:32;;;;;;;5.97;4.30;;;12.30;96.70;;;;;;4991122;28;20204;-77
2022/03/15 11:43:17;;;;;;;5.57;4.18;;;12.20;96.70;;;;;;4988074;28;20200;-77
2022/03/15 11:45:52;;;;;;;5.35;4.55;;;12.00;97.10;;;;;;4988040;28;20595;-77
2022/03/15 11:48:29;;;;;;;4.65;3.58;;;11.90;98.20;;;;;;4974602;28;20235;-77
2022/03/15 11:51:05;;;;;;;7.82;4.55;;;11.90;98.20;;;;;;4978760;28;20209;-77
2022/03/15 11:53:42;;;;;;;5.30;4.07;;;11.90;97.80;;;;;;4972676;28;20205;-77
2022/03/15 11:56:22;;;;;;;6.25;4.60;;;12.10;98.70;;;;;;4972479;28;20204;-78
2022/03/15 11:58:54;;;;;;;8.18;4.50;;;12.20;98.30;;;;;;4989788;28;20236;-79
2022/03/15 12:01:23;;;;;;;6.82;4.15;;;12.20;98.20;;;;;;4973312;28;20196;-77
2022/03/15 12:03:53;;;;;;;7.32;4.50;;;12.20;98.80;;;;;;4974646;28;20212;-77
2022/03/15 12:06:24;;;;;;;6.53;4.28;;;12.10;98.50;;;;;;4990195;28;20227;-77
2022/03/15 12:08:56;;;;;;;8.43;4.35;;;12.30;97.50;;;;;;4977522;28;20219;-77
2022/03/15 12:11:36;;;;;;;5.20;3.97;;;12.20;97.80;;;;;;4965531;28;20208;-77
2022/03/15 12:14:07;;;;;;;7.32;4.63;;;12.50;97.60;;;;;;4976588;28;20204;-77
2022/03/15 12:16:37;;;;;;;6.80;4.53;;;12.50;97.30;;;;;;4973781;28;20666;-78
2022/03/15 12:19:13;;;;;;;7.70;4.75;;;12.70;97.60;;;;;;4971652;28;20217;-78
2022/03/15 12:21:52;;;;;;;5.47;4.40;;;12.70;97.50;;;;;;5018423;28;20203;-77
2022/03/15 12:24:21;;;;;;;6.47;4.57;;;12.80;97.30;;;;;;4999020;28;20204;-77
2022/03/15 12:26:59;;;;;;;5.60;3.83;;;12.90;97.50;;;;;;4994645;28;20219;-78
2022/03/15 12:29:27;;;;;;;6.22;4.45;;;12.70;97.10;;;;;;4994637;28;20239;-78
2022/03/15 12:31:57;;;;;;;6.75;4.10;;;12.70;96.70;;;;;;4977114;28;20211;-76
2022/03/15 12:34:27;;;;;;;6.75;4.32;;;12.60;97.20;;;;;;4978757;28;20681;-77
2022/03/15 12:36:58;;;;;;;7.15;4.20;;;12.60;97.30;;;;;;4978618;28;20207;-78
2022/03/15 12:39:28;;;;;;;8.13;4.82;;;12.50;97.60;;;;;;4990582;28;20231;-78
2022/03/15 12:42:10;;;;;;;6.85;4.90;;;12.40;97.40;;;;;;4987305;28;20211;-77
2022/03/15 12:44:44;;;;;;;9.10;4.65;;;12.20;98.20;;;;;;4987545;28;20211;-78
2022/03/15 12:47:14;;;;;;;7.10;4.35;;;12.30;98.30;;;;;;4974635;28;20216;-76
2022/03/15 12:49:42;;;;;;;6.18;4.72;;;12.40;98.60;;;;;;4994063;28;20200;-77
2022/03/15 12:52:11;;;;;;;4.32;2.80;;;12.30;99.20;;;;;;4976038;28;20204;-81
2022/03/15 12:54:41;;;;;;;3.65;2.45;;;12.30;98.00;;;;;;4975947;28;20694;-78
2022/03/15 12:57:12;;;;;;;3.42;2.05;;;12.20;97.80;;;;;;4988752;28;20187;-77
2022/03/15 12:59:40;;;;;;;2.20;1.92;;;12.30;98.10;;;;;;4976572;28;20208;-79
2022/03/15 13:02:16;;;;;;;3.38;2.75;;;12.20;97.70;;;;;;4973255;28;20211;-79